createdAt,value
2022-10-12T00:01:26.189Z,14.35
2022-10-12T00:04:00.873Z,14.35
2022-10-12T00:06:37.590Z,14.29
2022-10-12T00:09:12.761Z,14.29
2022-10-12T00:11:46.458Z,14.23
2022-10-12T00:14:20.390Z,14.12
2022-10-12T00:16:54.002Z,14.01
2022-10-12T00:19:27.753Z,13.97
2022-10-12T00:22:01.374Z,13.99
2022-10-12T00:24:40.592Z,13.94
2022-10-12T00:27:16.534Z,13.97
2022-10-12T00:29:49.730Z,14.01
2022-10-12T00:32:23.180Z,13.97
2022-10-12T00:34:56.905Z,14.05
2022-10-12T00:37:29.724Z,14.06
2022-10-12T00:40:05.054Z,14.05
2022-10-12T00:42:37.877Z,13.90
2022-10-12T00:45:12.116Z,14.03
2022-10-12T00:47:51.432Z,14.08
2022-10-12T00:50:28.748Z,13.95
2022-10-12T00:53:07.927Z,14.11
2022-10-12T00:55:49.000Z,14.16
2022-10-12T00:58:23.943Z,13.97
2022-10-12T01:00:57.674Z,14.12
2022-10-12T01:03:31.459Z,14.03
2022-10-12T01:06:07.211Z,14.19
2022-10-12T01:08:41.194Z,14.09
2022-10-12T01:11:15.491Z,14.22
2022-10-12T01:13:48.501Z,14.25
2022-10-12T01:16:29.038Z,14.26
2022-10-12T01:19:15.008Z,14.36
2022-10-12T01:21:56.301Z,14.34
2022-10-12T01:24:45.926Z,14.35
2022-10-12T01:27:52.116Z,14.32
2022-10-12T01:30:30.678Z,14.30
2022-10-12T01:33:23.377Z,14.13
2022-10-12T01:36:05.745Z,14.26
2022-10-12T01:38:49.499Z,14.31
2022-10-12T01:41:28.799Z,14.36
2022-10-12T01:44:02.108Z,14.28
2022-10-12T01:46:45.767Z,14.39
2022-10-12T01:49:23.990Z,14.38
2022-10-12T01:52:12.360Z,14.26
2022-10-12T01:55:07.870Z,14.28
2022-10-12T01:57:54.912Z,14.27
2022-10-12T02:00:28.664Z,14.26
2022-10-12T02:03:13.175Z,14.15
2022-10-12T02:05:54.416Z,14.16
2022-10-12T02:08:33.708Z,14.17
2022-10-12T02:11:11.993Z,14.24
2022-10-12T02:13:49.665Z,14.17
2022-10-12T02:16:29.472Z,14.25
2022-10-12T02:19:06.363Z,14.34
2022-10-12T02:21:41.912Z,14.22
2022-10-12T02:24:17.985Z,14.34
2022-10-12T02:26:55.374Z,14.22
2022-10-12T02:29:35.112Z,14.21
2022-10-12T02:32:14.589Z,14.20
2022-10-12T02:34:56.053Z,14.27
2022-10-12T02:37:37.657Z,14.13
2022-10-12T02:40:17.021Z,14.07
2022-10-12T02:43:10.810Z,14.21
2022-10-12T02:45:47.993Z,14.17
2022-10-12T02:48:24.749Z,14.04
2022-10-12T02:51:01.397Z,14.03
2022-10-12T02:53:35.643Z,14.03
2022-10-12T02:56:13.121Z,14.14
2022-10-12T02:58:49.013Z,14.13
2022-10-12T03:01:22.691Z,14.13
2022-10-12T03:03:56.589Z,14.23
2022-10-12T03:06:31.605Z,14.25
2022-10-12T03:09:06.059Z,14.21
2022-10-12T03:11:43.679Z,14.14
2022-10-12T03:14:18.480Z,14.28
2022-10-12T03:16:52.190Z,14.18
2022-10-12T03:19:25.979Z,14.20
2022-10-12T03:22:00.997Z,14.18
2022-10-12T03:24:34.744Z,14.22
2022-10-12T03:27:08.452Z,13.97
2022-10-12T03:29:42.375Z,14.21
2022-10-12T03:32:16.105Z,14.24
2022-10-12T03:34:49.775Z,14.22
2022-10-12T03:37:24.779Z,14.28
2022-10-12T03:39:58.017Z,14.27
2022-10-12T03:42:31.656Z,14.19
2022-10-12T03:45:05.611Z,14.27
2022-10-12T03:47:39.582Z,14.27
2022-10-12T03:50:12.771Z,14.27
2022-10-12T03:52:47.852Z,14.12
2022-10-12T03:55:21.662Z,14.15
2022-10-12T03:57:55.204Z,14.13
2022-10-12T04:00:29.365Z,14.09
2022-10-12T04:03:03.638Z,14.10
2022-10-12T04:05:40.534Z,14.03
2022-10-12T04:08:15.673Z,14.09
2022-10-12T04:10:50.841Z,14.11
2022-10-12T04:13:24.586Z,14.22
2022-10-12T04:16:02.669Z,14.19
2022-10-12T04:18:36.447Z,14.27
2022-10-12T04:21:13.636Z,14.28
2022-10-12T04:23:48.657Z,14.34
2022-10-12T04:26:21.994Z,14.32
2022-10-12T04:28:55.625Z,14.33
2022-10-12T04:31:29.511Z,14.37
2022-10-12T04:34:02.808Z,14.41
2022-10-12T04:36:36.558Z,14.39
2022-10-12T04:39:11.687Z,14.50
2022-10-12T04:41:45.212Z,14.38
2022-10-12T04:44:18.761Z,14.49
2022-10-12T04:46:52.456Z,14.37
2022-10-12T04:49:26.166Z,14.46
2022-10-12T04:51:59.967Z,14.49
2022-10-12T04:54:35.009Z,14.66
2022-10-12T04:57:08.724Z,14.58
2022-10-12T04:59:42.320Z,14.61
2022-10-12T05:02:16.225Z,14.66
2022-10-12T05:04:50.235Z,14.49
2022-10-12T05:07:24.147Z,14.72
2022-10-12T05:09:59.096Z,14.64
2022-10-12T05:12:32.695Z,14.64
2022-10-12T05:15:07.326Z,14.78
2022-10-12T05:17:41.289Z,14.57
2022-10-12T05:20:15.111Z,14.65
2022-10-12T05:22:48.838Z,14.71
2022-10-12T05:25:23.871Z,14.70
2022-10-12T05:27:57.890Z,14.69
2022-10-12T05:30:31.764Z,14.68
2022-10-12T05:33:05.626Z,14.46
2022-10-12T05:35:38.425Z,14.60
2022-10-12T05:38:12.222Z,14.53
2022-10-12T05:40:47.288Z,14.50
2022-10-12T05:43:20.924Z,14.63
2022-10-12T05:45:54.490Z,14.67
2022-10-12T05:48:28.194Z,14.65
2022-10-12T05:51:01.712Z,14.55
2022-10-12T05:53:35.394Z,14.66
2022-10-12T05:56:09.768Z,14.63
2022-10-12T05:58:43.345Z,14.73
2022-10-12T06:01:16.553Z,14.54
2022-10-12T06:03:49.433Z,14.68
2022-10-12T06:06:22.811Z,14.68
2022-10-12T06:08:55.658Z,14.71
2022-10-12T06:11:32.635Z,14.70
2022-10-12T06:14:08.466Z,14.65
2022-10-12T06:16:41.417Z,14.56
2022-10-12T06:19:14.604Z,14.72
2022-10-12T06:21:47.466Z,14.66
2022-10-12T06:24:21.313Z,14.67
2022-10-12T06:26:55.543Z,14.71
2022-10-12T06:29:28.355Z,14.64
2022-10-12T06:32:01.166Z,14.72
2022-10-12T06:34:33.961Z,14.65
2022-10-12T06:37:06.833Z,14.52
2022-10-12T06:39:39.640Z,14.56
2022-10-12T06:42:13.825Z,14.66
2022-10-12T06:44:46.793Z,14.64
2022-10-12T06:47:19.564Z,14.71
2022-10-12T06:49:52.482Z,14.83
2022-10-12T06:52:25.323Z,14.85
2022-10-12T06:54:58.209Z,14.64
2022-10-12T06:57:33.400Z,14.81
2022-10-12T07:00:09.610Z,14.84
2022-10-12T07:02:43.200Z,14.87
2022-10-12T07:05:16.437Z,14.92
2022-10-12T07:07:49.601Z,14.95
2022-10-12T07:10:22.423Z,14.85
2022-10-12T07:12:56.763Z,14.79
2022-10-12T07:15:29.556Z,14.94
2022-10-12T07:18:03.125Z,14.96
2022-10-12T07:20:36.415Z,15.15
2022-10-12T07:23:10.038Z,15.07
2022-10-12T07:25:49.976Z,15.09
2022-10-12T07:28:25.087Z,14.95
2022-10-12T07:31:03.527Z,14.98
2022-10-12T07:33:38.710Z,14.97
2022-10-12T07:36:19.296Z,14.92
2022-10-12T07:38:54.651Z,14.94
2022-10-12T07:41:28.427Z,14.93
2022-10-12T07:44:03.624Z,15.09
2022-10-12T07:46:36.516Z,14.97
2022-10-12T07:49:09.983Z,15.04
2022-10-12T07:51:44.338Z,15.21
2022-10-12T07:54:20.990Z,15.18
2022-10-12T07:56:55.518Z,15.33
2022-10-12T07:59:30.043Z,15.56
2022-10-12T08:02:03.103Z,15.60
2022-10-12T08:04:36.023Z,15.55
2022-10-12T08:07:10.122Z,15.66
2022-10-12T08:09:43.166Z,15.66
2022-10-12T08:12:16.169Z,15.43
2022-10-12T08:14:50.473Z,15.22
2022-10-12T08:17:23.379Z,15.38
2022-10-12T08:19:56.254Z,15.40
2022-10-12T08:22:29.319Z,15.37
2022-10-12T08:25:02.180Z,15.33
2022-10-12T08:27:35.955Z,15.36
2022-10-12T08:30:11.540Z,15.39
2022-10-12T08:32:44.451Z,15.54
2022-10-12T08:35:17.369Z,15.46
2022-10-12T08:37:50.454Z,15.65
2022-10-12T08:40:30.681Z,15.55
2022-10-12T08:43:13.236Z,15.48
2022-10-12T08:45:53.748Z,15.57
2022-10-12T08:48:31.069Z,15.59
2022-10-12T08:51:08.429Z,15.63
2022-10-12T08:53:51.869Z,15.61
2022-10-12T08:56:24.871Z,15.62
2022-10-12T08:58:58.151Z,15.73
2022-10-12T09:01:37.367Z,15.71
2022-10-12T09:04:26.364Z,15.69
2022-10-12T09:07:07.087Z,15.87
2022-10-12T09:09:54.692Z,16.09
2022-10-12T09:12:41.860Z,16.07
2022-10-12T09:15:19.648Z,16.13
2022-10-12T09:17:55.780Z,16.35
2022-10-12T09:20:31.998Z,16.43
2022-10-12T09:23:18.006Z,16.21
2022-10-12T09:25:52.093Z,16.17
2022-10-12T09:28:33.765Z,16.17
2022-10-12T09:31:21.437Z,16.08
2022-10-12T09:33:58.820Z,16.10
2022-10-12T09:36:35.519Z,16.00
2022-10-12T09:39:14.683Z,16.06
2022-10-12T09:41:49.515Z,16.22
2022-10-12T09:44:29.022Z,16.27
2022-10-12T09:47:03.925Z,16.23
2022-10-12T09:49:46.098Z,16.31
2022-10-12T09:52:23.001Z,16.32
2022-10-12T09:54:58.709Z,16.34
2022-10-12T09:57:34.885Z,16.49
2022-10-12T10:00:25.014Z,16.56
2022-10-12T10:02:58.561Z,16.52
2022-10-12T10:05:34.511Z,16.53
2022-10-12T10:08:20.299Z,16.46
2022-10-12T10:10:54.187Z,16.50
2022-10-12T10:13:30.310Z,16.59
2022-10-12T10:16:06.214Z,16.66
2022-10-12T10:18:43.060Z,16.66
2022-10-12T10:21:28.366Z,16.76
2022-10-12T10:24:02.952Z,16.90
2022-10-12T10:26:54.623Z,17.21
2022-10-12T10:29:36.313Z,17.32
2022-10-12T10:32:29.004Z,17.50
2022-10-12T10:35:04.091Z,17.42
2022-10-12T10:37:40.205Z,17.46
2022-10-12T10:40:19.842Z,17.26
2022-10-12T10:42:55.411Z,17.29
2022-10-12T10:45:31.175Z,17.06
2022-10-12T10:48:09.395Z,17.11
2022-10-12T10:50:45.048Z,17.19
2022-10-12T10:53:22.024Z,17.46
2022-10-12T10:56:00.743Z,17.31
2022-10-12T10:58:38.850Z,17.41
2022-10-12T11:01:19.579Z,17.52
2022-10-12T11:03:59.554Z,17.33
2022-10-12T11:06:40.745Z,17.77
2022-10-12T11:09:20.618Z,17.57
2022-10-12T11:12:00.520Z,17.60
2022-10-12T11:14:38.610Z,17.59
2022-10-12T11:17:17.786Z,17.50
2022-10-12T11:19:57.268Z,17.59
2022-10-12T11:22:37.286Z,17.50
2022-10-12T11:25:22.094Z,17.73
2022-10-12T11:27:55.464Z,17.73
2022-10-12T11:30:38.369Z,17.67
2022-10-12T11:33:17.336Z,17.70
2022-10-12T11:35:50.905Z,17.79
2022-10-12T11:38:30.903Z,17.88
2022-10-12T11:41:34.471Z,17.67
2022-10-12T11:44:08.521Z,17.50
2022-10-12T11:46:50.663Z,17.26
2022-10-12T11:49:30.776Z,17.17
2022-10-12T11:52:12.094Z,17.29
2022-10-12T11:54:53.507Z,17.24
2022-10-12T11:57:32.855Z,17.26
2022-10-12T12:00:18.568Z,17.12
2022-10-12T12:02:56.926Z,17.06
2022-10-12T12:05:33.610Z,17.36
2022-10-12T12:08:06.604Z,17.41
2022-10-12T12:11:08.263Z,17.29
2022-10-12T12:13:42.865Z,17.36
2022-10-12T12:16:33.807Z,17.14
2022-10-12T12:19:37.659Z,17.17
2022-10-12T12:22:17.996Z,17.29
2022-10-12T12:25:04.119Z,17.38
2022-10-12T12:27:41.291Z,17.39
2022-10-12T12:30:32.201Z,17.32
2022-10-12T12:33:25.364Z,16.99
2022-10-12T12:36:00.745Z,16.97
2022-10-12T12:38:36.311Z,16.92
2022-10-12T12:41:14.315Z,17.08
2022-10-12T12:43:59.438Z,17.35
2022-10-12T12:47:39.909Z,17.69
2022-10-12T12:50:33.475Z,17.74
2022-10-12T12:53:12.545Z,17.79
2022-10-12T12:56:03.752Z,17.74
2022-10-12T12:58:58.555Z,17.59
2022-10-12T13:02:03.622Z,17.92
2022-10-12T13:04:58.808Z,18.08
2022-10-12T13:08:03.269Z,18.20
2022-10-12T13:10:52.775Z,18.49
2022-10-12T13:13:44.251Z,18.61
2022-10-12T13:17:30.045Z,18.38
2022-10-12T13:19:34.120Z,18.23
2022-10-12T13:22:15.895Z,18.20
2022-10-12T13:24:53.236Z,18.45
2022-10-12T13:27:33.996Z,18.25
2022-10-12T13:30:14.977Z,18.27
2022-10-12T13:32:54.638Z,18.24
2022-10-12T13:35:35.102Z,18.52
2022-10-12T13:38:21.270Z,18.32
2022-10-12T13:41:03.720Z,18.05
2022-10-12T13:43:43.944Z,18.18
2022-10-12T13:46:36.949Z,17.88
2022-10-12T13:49:18.938Z,17.73
2022-10-12T13:51:54.748Z,17.81
2022-10-12T13:54:36.791Z,17.79
2022-10-12T13:57:22.791Z,17.91
2022-10-12T13:59:59.211Z,18.06
2022-10-12T14:02:33.793Z,17.99
2022-10-12T14:05:17.830Z,18.16
2022-10-12T14:07:54.305Z,18.13
2022-10-12T14:10:33.260Z,18.32
2022-10-12T14:13:09.491Z,18.37
2022-10-12T14:15:43.873Z,18.44
2022-10-12T14:18:37.847Z,18.59
2022-10-12T14:21:23.485Z,18.73
2022-10-12T14:23:58.383Z,18.53
2022-10-12T14:26:39.014Z,18.64
2022-10-12T14:29:34.179Z,18.29
2022-10-12T14:32:08.557Z,18.29
2022-10-12T14:34:46.646Z,18.28
2022-10-12T14:37:27.579Z,18.19
2022-10-12T14:40:01.055Z,18.32
2022-10-12T14:42:35.402Z,18.41
2022-10-12T14:45:25.527Z,18.29
2022-10-12T14:47:59.799Z,18.31
2022-10-12T14:50:33.622Z,18.51
2022-10-12T14:53:12.819Z,18.52
2022-10-12T14:55:46.926Z,18.50
2022-10-12T14:58:22.399Z,18.41
2022-10-12T15:00:56.657Z,18.46
2022-10-12T15:03:29.562Z,18.57
2022-10-12T15:06:02.506Z,18.56
2022-10-12T15:08:35.369Z,18.57
2022-10-12T15:11:08.343Z,18.65
2022-10-12T15:13:41.970Z,18.61
2022-10-12T15:16:21.577Z,18.54
2022-10-12T15:18:55.037Z,18.63
2022-10-12T15:21:27.984Z,18.60
2022-10-12T15:24:00.863Z,18.47
2022-10-12T15:26:33.736Z,18.42
2022-10-12T15:29:06.660Z,18.16
2022-10-12T15:31:41.908Z,18.07
2022-10-12T15:34:16.222Z,17.88
2022-10-12T15:36:49.814Z,18.02
2022-10-12T15:39:22.604Z,17.82
2022-10-12T15:41:55.943Z,17.93
2022-10-12T15:44:29.223Z,17.78
2022-10-12T15:47:03.437Z,17.89
2022-10-12T15:49:36.384Z,18.04
2022-10-12T15:52:11.817Z,17.85
2022-10-12T15:54:48.768Z,17.99
2022-10-12T15:57:21.895Z,17.96
2022-10-12T15:59:54.757Z,17.77
2022-10-12T16:02:29.254Z,17.71
2022-10-12T16:05:02.302Z,17.66
2022-10-12T16:07:35.172Z,17.66
2022-10-12T16:10:10.324Z,17.73
2022-10-12T16:12:44.719Z,17.79
2022-10-12T16:15:21.520Z,17.65
2022-10-12T16:17:55.834Z,17.51
2022-10-12T16:20:30.856Z,17.41
2022-10-12T16:23:04.297Z,17.60
2022-10-12T16:25:37.321Z,17.52
2022-10-12T16:28:12.088Z,17.55
2022-10-12T16:30:45.132Z,17.40
2022-10-12T16:33:19.817Z,17.43
2022-10-12T16:35:52.752Z,17.34
2022-10-12T16:38:25.620Z,17.22
2022-10-12T16:40:58.479Z,17.17
2022-10-12T16:43:31.366Z,17.07
2022-10-12T16:46:04.296Z,17.23
2022-10-12T16:48:39.043Z,17.21
2022-10-12T16:51:13.615Z,17.15
2022-10-12T16:53:47.025Z,17.33
2022-10-12T16:56:20.647Z,17.38
2022-10-12T16:58:54.506Z,17.26
2022-10-12T17:01:27.389Z,17.28
2022-10-12T17:04:02.713Z,17.22
2022-10-12T17:06:35.624Z,17.18
2022-10-12T17:09:09.666Z,17.12
2022-10-12T17:11:43.325Z,17.28
2022-10-12T17:14:18.204Z,16.99
2022-10-12T17:16:52.634Z,17.27
2022-10-12T17:19:29.879Z,17.20
2022-10-12T17:22:04.548Z,17.21
2022-10-12T17:24:40.573Z,17.18
2022-10-12T17:27:15.873Z,17.35
2022-10-12T17:29:49.922Z,17.21
2022-10-12T17:32:23.395Z,17.34
2022-10-12T17:34:57.586Z,17.42
2022-10-12T17:37:31.234Z,17.45
2022-10-12T17:40:04.765Z,17.50
2022-10-12T17:42:37.731Z,17.31
2022-10-12T17:45:15.585Z,17.10
2022-10-12T17:47:49.438Z,17.09
2022-10-12T17:50:24.573Z,17.07
2022-10-12T17:52:58.108Z,17.04
2022-10-12T17:55:48.067Z,17.02
2022-10-12T17:58:22.479Z,16.87
2022-10-12T18:00:56.238Z,16.81
2022-10-12T18:03:29.814Z,16.56
2022-10-12T18:06:08.215Z,16.66
2022-10-12T18:08:41.890Z,16.57
2022-10-12T18:11:16.174Z,16.49
2022-10-12T18:13:52.350Z,16.34
2022-10-12T18:16:27.584Z,16.39
2022-10-12T18:19:02.798Z,16.45
2022-10-12T18:21:37.318Z,16.67
2022-10-12T18:24:16.519Z,16.74
2022-10-12T18:26:50.865Z,16.42
2022-10-12T18:29:24.438Z,16.55
2022-10-12T18:31:58.294Z,16.67
2022-10-12T18:34:36.382Z,16.71
2022-10-12T18:37:11.988Z,16.76
2022-10-12T18:39:45.616Z,16.74
2022-10-12T18:42:19.495Z,16.83
2022-10-12T18:44:53.279Z,16.87
2022-10-12T18:47:26.358Z,16.93
2022-10-12T18:49:59.835Z,16.88
2022-10-12T18:52:35.072Z,16.86
2022-10-12T18:55:09.384Z,16.93
2022-10-12T18:57:42.656Z,16.88
2022-10-12T19:00:16.743Z,16.93
2022-10-12T19:02:50.630Z,16.91
2022-10-12T19:05:24.955Z,16.92
2022-10-12T19:08:00.366Z,16.95
2022-10-12T19:10:33.941Z,16.91
2022-10-12T19:13:06.876Z,16.89
2022-10-12T19:15:40.598Z,16.83
2022-10-12T19:18:14.444Z,16.88
2022-10-12T19:20:48.041Z,16.87
2022-10-12T19:23:23.132Z,16.78
2022-10-12T19:25:56.683Z,16.76
2022-10-12T19:28:30.351Z,16.78
2022-10-12T19:31:11.268Z,16.78
2022-10-12T19:33:45.832Z,16.68
2022-10-12T19:36:19.901Z,16.69
2022-10-12T19:38:58.276Z,16.66
2022-10-12T19:41:32.457Z,16.61
2022-10-12T19:44:06.200Z,16.67
2022-10-12T19:46:40.266Z,16.72
2022-10-12T19:49:15.823Z,16.76
2022-10-12T19:51:49.696Z,16.66
2022-10-12T19:54:24.903Z,16.61
2022-10-12T19:56:58.476Z,16.67
2022-10-12T19:59:32.400Z,16.68
2022-10-12T20:02:05.994Z,16.66
2022-10-12T20:04:38.946Z,16.59
2022-10-12T20:07:13.545Z,16.54
2022-10-12T20:09:48.969Z,16.45
2022-10-12T20:12:22.545Z,16.32
2022-10-12T20:14:56.177Z,16.43
2022-10-12T20:17:29.721Z,16.43
2022-10-12T20:20:03.478Z,16.39
2022-10-12T20:22:36.612Z,16.44
2022-10-12T20:25:11.917Z,16.43
2022-10-12T20:27:45.457Z,16.43
2022-10-12T20:30:18.647Z,16.44
2022-10-12T20:32:55.549Z,16.33
2022-10-12T20:35:30.215Z,16.29
2022-10-12T20:38:04.202Z,16.23
2022-10-12T20:40:39.476Z,16.29
2022-10-12T20:43:13.083Z,16.30
2022-10-12T20:45:46.752Z,16.30
2022-10-12T20:48:20.350Z,16.27
2022-10-12T20:50:54.256Z,16.25
2022-10-12T20:53:27.681Z,16.30
2022-10-12T20:56:06.015Z,16.29
2022-10-12T20:58:38.848Z,16.27
2022-10-12T21:01:15.384Z,16.22
2022-10-12T21:03:48.972Z,16.17
2022-10-12T21:06:23.536Z,16.10
2022-10-12T21:08:58.978Z,16.08
2022-10-12T21:11:34.616Z,16.06
2022-10-12T21:14:08.490Z,16.06
2022-10-12T21:16:42.447Z,16.04
2022-10-12T21:19:17.413Z,16.01
2022-10-12T21:21:51.200Z,16.12
2022-10-12T21:24:24.817Z,16.13
2022-10-12T21:27:00.363Z,16.12
2022-10-12T21:29:33.155Z,16.15
2022-10-12T21:32:06.805Z,16.27
2022-10-12T21:34:39.660Z,16.28
2022-10-12T21:37:12.551Z,16.22
2022-10-12T21:39:48.658Z,16.29
2022-10-12T21:42:27.378Z,16.22
2022-10-12T21:45:00.917Z,16.19
2022-10-12T21:47:34.353Z,16.21
2022-10-12T21:50:09.620Z,16.15
2022-10-12T21:52:42.668Z,16.22
2022-10-12T21:55:15.648Z,16.23
2022-10-12T21:57:50.988Z,16.20
2022-10-12T22:00:24.669Z,16.22
2022-10-12T22:02:58.623Z,16.22
2022-10-12T22:05:31.824Z,16.22
2022-10-12T22:08:05.572Z,16.21
2022-10-12T22:10:39.844Z,16.11
2022-10-12T22:13:14.989Z,16.07
2022-10-12T22:15:48.545Z,16.06
2022-10-12T22:18:22.167Z,16.09
2022-10-12T22:20:55.892Z,16.17
2022-10-12T22:23:28.737Z,16.22
2022-10-12T22:26:02.237Z,16.20
2022-10-12T22:28:37.526Z,16.16
2022-10-12T22:31:12.145Z,16.16
2022-10-12T22:33:46.013Z,16.12
2022-10-12T22:36:19.703Z,16.13
2022-10-12T22:38:53.415Z,16.10
2022-10-12T22:41:27.117Z,16.08
2022-10-12T22:44:01.397Z,16.06
2022-10-12T22:46:34.306Z,16.07
2022-10-12T22:49:16.368Z,16.07
2022-10-12T22:51:49.961Z,16.01
2022-10-12T22:54:23.928Z,15.96
2022-10-12T22:56:57.500Z,15.95
2022-10-12T22:59:32.618Z,15.93
2022-10-12T23:02:06.200Z,15.92
2022-10-12T23:04:39.965Z,15.91
2022-10-12T23:07:13.167Z,15.90
2022-10-12T23:09:46.816Z,15.91
2022-10-12T23:12:20.743Z,15.87
2022-10-12T23:14:55.976Z,15.77
2022-10-12T23:17:29.782Z,15.73
2022-10-12T23:20:04.392Z,15.69
2022-10-12T23:22:38.860Z,15.68
2022-10-12T23:25:13.044Z,15.61
2022-10-12T23:27:46.780Z,15.57
2022-10-12T23:30:21.006Z,15.54
2022-10-12T23:32:54.690Z,15.54
2022-10-12T23:35:27.536Z,15.55
2022-10-12T23:38:00.332Z,15.57
2022-10-12T23:40:35.331Z,15.61
2022-10-12T23:43:08.105Z,15.60
2022-10-12T23:45:44.155Z,15.58
2022-10-12T23:48:17.447Z,15.63
2022-10-12T23:50:51.924Z,15.73
2022-10-12T23:53:25.994Z,15.79
2022-10-12T23:55:59.765Z,15.82
2022-10-12T23:58:32.571Z,15.84
